Time;durP1;ratioP1;P1;durP2;ratioP2;P2;SDS_P1;SDS_P2;PMS_P1;PMS_P2;Temp;Humidity;BMP_temperature;BMP_pressure;BME280_temperature;BME280_humidity;BME280_pressure;Samples;Min_cycle;Max_cycle;Signal;HPM_P1;HPM_P2
2020/12/03 00:00:39;;;;;;;59.72;31.83;;;3.10;82.10;;;;;;5054103;28;20037;-68
2020/12/03 00:03:19;;;;;;;60.28;33.00;;;3.10;82.40;;;;;;5053354;28;20031;-67
2020/12/03 00:05:49;;;;;;;45.45;24.10;;;3.10;82.10;;;;;;5052662;28;20377;-67
2020/12/03 00:08:15;;;;;;;52.38;28.83;;;3.20;82.10;;;;;;5052651;28;20032;-66
2020/12/03 00:10:40;;;;;;;55.90;30.77;;;3.10;82.10;;;;;;5053116;28;20037;-67
2020/12/03 00:13:17;;;;;;;35.90;21.00;;;3.10;81.90;;;;;;5054340;28;20021;-66
2020/12/03 00:15:44;;;;;;;36.83;21.30;;;3.10;82.20;;;;;;5053167;28;20025;-66
2020/12/03 00:18:10;;;;;;;36.30;20.63;;;3.10;82.10;;;;;;5054299;28;20021;-67
2020/12/03 00:20:37;;;;;;;49.67;27.38;;;3.10;82.10;;;;;;5053616;28;20037;-68
2020/12/03 00:23:04;;;;;;;42.55;23.77;;;3.10;82.10;;;;;;5053376;28;20108;-68
2020/12/03 00:25:29;;;;;;;43.78;24.75;;;3.10;82.30;;;;;;5052146;28;20028;-68
2020/12/03 00:27:56;;;;;;;37.55;21.88;;;3.10;82.10;;;;;;5053638;28;20029;-68
2020/12/03 00:30:23;;;;;;;37.15;22.02;;;3.10;82.20;;;;;;5053025;28;20424;-68
2020/12/03 00:32:52;;;;;;;38.05;22.35;;;3.10;82.30;;;;;;5053648;28;20036;-68
2020/12/03 00:35:20;;;;;;;56.58;31.58;;;3.10;82.00;;;;;;5053539;28;20112;-67
2020/12/03 00:37:46;;;;;;;33.53;19.83;;;3.10;82.40;;;;;;5052912;28;20388;-68
2020/12/03 00:40:12;;;;;;;48.17;27.98;;;3.10;82.00;;;;;;5053447;28;20037;-68
2020/12/03 00:42:38;;;;;;;46.53;26.48;;;3.10;82.40;;;;;;5052140;28;20029;-67
2020/12/03 00:45:06;;;;;;;53.55;30.52;;;3.10;82.40;;;;;;5053131;28;20036;-69
2020/12/03 00:47:32;;;;;;;57.40;31.35;;;3.10;82.50;;;;;;5053998;28;20025;-67
2020/12/03 00:49:58;;;;;;;32.80;19.33;;;3.10;82.40;;;;;;5053730;28;20484;-70
2020/12/03 00:52:24;;;;;;;59.55;31.55;;;3.10;82.40;;;;;;5052825;28;20029;-67
2020/12/03 00:54:50;;;;;;;47.92;26.70;;;3.10;82.70;;;;;;5053381;28;20025;-70
2020/12/03 00:57:15;;;;;;;38.45;22.15;;;3.10;82.40;;;;;;5053759;28;20094;-68
2020/12/03 00:59:41;;;;;;;32.85;19.38;;;3.20;82.10;;;;;;5051697;28;20386;-67
2020/12/03 01:02:13;;;;;;;42.30;24.90;;;3.20;82.20;;;;;;5053347;28;20025;-68
2020/12/03 01:04:39;;;;;;;40.05;22.65;;;3.20;82.40;;;;;;5052964;28;20025;-68
2020/12/03 01:07:06;;;;;;;69.65;36.65;;;3.10;82.40;;;;;;5052976;28;20052;-68
2020/12/03 01:09:34;;;;;;;38.63;22.38;;;3.20;82.40;;;;;;5055748;28;20032;-68
2020/12/03 01:12:00;;;;;;;42.97;23.77;;;3.20;82.40;;;;;;5057061;28;20064;-67
2020/12/03 01:14:25;;;;;;;42.72;25.00;;;3.20;82.30;;;;;;5057031;28;20055;-68
2020/12/03 01:16:51;;;;;;;52.03;25.98;;;3.20;82.00;;;;;;5057007;28;20025;-68
2020/12/03 01:19:17;;;;;;;46.70;25.58;;;3.20;82.20;;;;;;5056981;28;20485;-68
2020/12/03 01:21:42;;;;;;;36.95;21.58;;;3.20;82.80;;;;;;5056939;28;20492;-67
2020/12/03 01:24:08;;;;;;;47.65;26.00;;;3.20;82.00;;;;;;5056817;28;20032;-68
2020/12/03 01:26:34;;;;;;;38.67;22.58;;;3.20;82.20;;;;;;5055277;28;20029;-68
2020/12/03 01:29:00;;;;;;;32.67;20.35;;;3.20;82.10;;;;;;5055519;28;20032;-68
2020/12/03 01:31:31;;;;;;;29.45;17.40;;;3.20;82.20;;;;;;5056432;28;20029;-67
2020/12/03 01:33:59;;;;;;;42.60;25.10;;;3.30;82.20;;;;;;5056488;28;20029;-67
2020/12/03 01:36:25;;;;;;;33.60;19.75;;;3.30;82.20;;;;;;5057181;28;20040;-70
2020/12/03 01:38:51;;;;;;;37.75;22.38;;;3.30;82.00;;;;;;5054938;28;20029;-68
2020/12/03 01:41:17;;;;;;;43.15;24.05;;;3.30;81.70;;;;;;5056344;28;20087;-68
2020/12/03 01:43:44;;;;;;;43.00;23.20;;;3.30;81.90;;;;;;5056222;28;20025;-68
2020/12/03 01:46:10;;;;;;;47.72;25.23;;;3.30;81.90;;;;;;5056488;28;20040;-69
2020/12/03 01:48:40;;;;;;;43.13;24.23;;;3.40;81.70;;;;;;5056059;28;20028;-68
2020/12/03 01:51:15;;;;;;;41.42;23.63;;;3.30;81.80;;;;;;5056166;28;20035;-68
2020/12/03 01:53:41;;;;;;;29.92;18.30;;;3.30;81.70;;;;;;5056260;28;20104;-70
2020/12/03 01:56:22;;;;;;;31.83;18.23;;;3.40;81.80;;;;;;5056131;28;20064;-66
2020/12/03 01:58:48;;;;;;;34.35;20.17;;;3.30;81.80;;;;;;5056486;28;20045;-68
2020/12/03 02:01:14;;;;;;;33.97;19.73;;;3.40;81.70;;;;;;5055586;28;20028;-68
2020/12/03 02:03:47;;;;;;;36.42;21.83;;;3.30;81.80;;;;;;5056310;28;20077;-68
2020/12/03 02:06:23;;;;;;;28.30;18.42;;;3.30;81.70;;;;;;5055376;28;20382;-68
2020/12/03 02:08:49;;;;;;;38.03;21.88;;;3.30;81.70;;;;;;5055726;28;20484;-68
2020/12/03 02:11:16;;;;;;;35.97;21.65;;;3.30;82.00;;;;;;5055999;28;20052;-67
2020/12/03 02:13:57;;;;;;;38.28;21.92;;;3.30;82.10;;;;;;5056377;28;20513;-69
2020/12/03 02:16:25;;;;;;;45.97;22.23;;;3.30;81.90;;;;;;5055562;28;20102;-68
2020/12/03 02:18:51;;;;;;;42.95;22.35;;;3.30;82.00;;;;;;5055733;28;20025;-67
2020/12/03 02:21:17;;;;;;;33.85;19.05;;;3.30;82.00;;;;;;5055047;28;20040;-68
2020/12/03 02:23:44;;;;;;;25.55;15.93;;;3.30;82.00;;;;;;5055449;28;20021;-67
2020/12/03 02:26:11;;;;;;;28.30;18.23;;;3.30;82.30;;;;;;5054657;28;20381;-67
2020/12/03 02:28:37;;;;;;;33.35;20.17;;;3.30;82.30;;;;;;5054038;28;20029;-67
2020/12/03 02:31:03;;;;;;;32.38;18.85;;;3.30;82.00;;;;;;5055573;28;20051;-68
2020/12/03 02:33:29;;;;;;;29.00;17.95;;;3.30;81.90;;;;;;5055271;28;20029;-68
2020/12/03 02:35:55;;;;;;;32.22;17.83;;;3.30;81.70;;;;;;5055239;28;20473;-68
2020/12/03 02:38:22;;;;;;;36.75;22.15;;;3.30;82.00;;;;;;5055745;28;20033;-68
2020/12/03 02:40:47;;;;;;;31.02;18.60;;;3.20;82.00;;;;;;5055342;28;20060;-68
2020/12/03 02:43:13;;;;;;;33.92;19.67;;;3.30;82.20;;;;;;5055245;28;20063;-70
2020/12/03 02:45:39;;;;;;;27.90;16.52;;;3.20;82.40;;;;;;5055344;28;20033;-67
2020/12/03 02:48:05;;;;;;;25.67;15.38;;;3.20;82.40;;;;;;5055301;28;20087;-67
2020/12/03 02:50:31;;;;;;;28.00;16.17;;;3.20;82.40;;;;;;5054129;28;20035;-68
2020/12/03 02:52:56;;;;;;;23.33;14.68;;;3.20;82.50;;;;;;5055186;28;20454;-67
2020/12/03 02:55:22;;;;;;;37.78;21.55;;;3.20;82.70;;;;;;5055441;28;20021;-68
2020/12/03 02:57:48;;;;;;;28.60;17.70;;;3.20;82.60;;;;;;5054351;28;20059;-68
2020/12/03 03:00:14;;;;;;;35.20;19.92;;;3.20;82.70;;;;;;5053639;28;20489;-68
2020/12/03 03:02:39;;;;;;;29.85;16.48;;;3.20;82.80;;;;;;5055217;28;20104;-69
2020/12/03 03:05:05;;;;;;;36.58;20.52;;;3.20;82.70;;;;;;5054645;28;20056;-68
2020/12/03 03:07:31;;;;;;;29.10;16.95;;;3.20;82.80;;;;;;5054578;28;20033;-67
2020/12/03 03:09:57;;;;;;;42.70;23.98;;;3.20;82.80;;;;;;5055185;28;20115;-68
2020/12/03 03:12:23;;;;;;;34.92;19.05;;;3.20;83.10;;;;;;5054493;28;20029;-68
2020/12/03 03:14:49;;;;;;;24.77;14.80;;;3.10;83.20;;;;;;5054813;28;20029;-68
2020/12/03 03:17:14;;;;;;;33.15;18.88;;;3.20;83.20;;;;;;5054491;28;20036;-70
2020/12/03 03:19:40;;;;;;;32.78;19.98;;;3.20;83.30;;;;;;5054344;28;20108;-68
2020/12/03 03:22:06;;;;;;;30.05;18.05;;;3.20;83.30;;;;;;5054873;28;20029;-68
2020/12/03 03:24:32;;;;;;;41.38;23.80;;;3.20;83.40;;;;;;5053567;28;20029;-68
2020/12/03 03:26:58;;;;;;;35.33;21.58;;;3.10;83.40;;;;;;5054179;28;20431;-68
2020/12/03 03:29:24;;;;;;;42.38;25.92;;;3.10;83.40;;;;;;5053523;28;20492;-68
2020/12/03 03:31:49;;;;;;;39.00;23.58;;;3.10;83.30;;;;;;5053703;28;20029;-69
2020/12/03 03:34:15;;;;;;;38.00;23.48;;;3.20;83.40;;;;;;5054933;28;20039;-69
2020/12/03 03:36:41;;;;;;;40.30;25.08;;;3.10;83.40;;;;;;5054440;28;20033;-68
2020/12/03 03:39:07;;;;;;;41.10;24.23;;;3.10;83.20;;;;;;5052377;28;20033;-67
2020/12/03 03:41:34;;;;;;;35.60;20.70;;;3.10;83.60;;;;;;5054305;28;20051;-67
2020/12/03 03:44:00;;;;;;;37.38;20.75;;;3.10;83.90;;;;;;5054501;28;20108;-68
2020/12/03 03:46:26;;;;;;;31.42;19.05;;;3.10;83.90;;;;;;5053594;28;20112;-68
2020/12/03 03:48:51;;;;;;;33.53;20.92;;;3.10;83.90;;;;;;5054427;28;20366;-68
2020/12/03 03:51:17;;;;;;;40.97;23.38;;;3.10;84.20;;;;;;5054387;28;20495;-67
2020/12/03 03:53:43;;;;;;;33.08;19.52;;;3.10;84.10;;;;;;5053824;28;20377;-67
2020/12/03 03:56:10;;;;;;;42.33;24.33;;;3.10;84.10;;;;;;5053437;28;20096;-69
2020/12/03 03:58:36;;;;;;;39.08;20.98;;;3.10;84.20;;;;;;5053929;28;20028;-67
2020/12/03 04:01:02;;;;;;;35.78;19.85;;;3.10;84.20;;;;;;5053455;28;20156;-67
2020/12/03 04:03:28;;;;;;;56.10;25.10;;;3.10;84.20;;;;;;5053906;28;20493;-70
2020/12/03 04:05:55;;;;;;;55.50;29.63;;;3.10;84.30;;;;;;5053563;28;20453;-68
2020/12/03 04:08:24;;;;;;;55.78;31.10;;;3.10;84.50;;;;;;5053810;28;20056;-69
2020/12/03 04:10:50;;;;;;;38.20;22.20;;;3.10;84.50;;;;;;5053790;28;20075;-68
2020/12/03 04:13:19;;;;;;;33.60;20.25;;;3.10;84.30;;;;;;5053777;28;20029;-67
2020/12/03 04:15:45;;;;;;;39.97;23.58;;;3.10;84.40;;;;;;5053012;28;20074;-68
2020/12/03 04:18:10;;;;;;;42.17;26.05;;;3.10;84.60;;;;;;5054035;28;20465;-68
2020/12/03 04:20:36;;;;;;;41.75;25.75;;;3.10;84.40;;;;;;5053139;28;20029;-68
2020/12/03 04:23:03;;;;;;;37.08;21.45;;;3.10;84.20;;;;;;5053320;28;20037;-67
2020/12/03 04:25:28;;;;;;;52.75;30.35;;;3.10;84.10;;;;;;5053725;28;20026;-66
2020/12/03 04:27:54;;;;;;;42.60;24.92;;;3.10;84.10;;;;;;5052479;28;20021;-68
2020/12/03 04:30:20;;;;;;;36.13;22.00;;;3.10;84.10;;;;;;5053905;28;20037;-69
2020/12/03 04:32:46;;;;;;;37.78;22.13;;;3.10;84.20;;;;;;5054402;28;20032;-69
2020/12/03 04:35:12;;;;;;;50.33;30.95;;;3.20;84.20;;;;;;5053392;28;20025;-68
2020/12/03 04:37:38;;;;;;;33.30;21.48;;;3.10;84.10;;;;;;5053698;28;20355;-68
2020/12/03 04:40:10;;;;;;;37.60;23.17;;;3.20;84.80;;;;;;5053225;28;20033;-69
2020/12/03 04:42:37;;;;;;;38.80;24.02;;;3.20;84.10;;;;;;5052885;28;20104;-68
2020/12/03 04:45:42;;;;;;;30.05;18.60;;;3.20;84.20;;;;;;5056739;28;20355;-68
2020/12/03 04:48:27;;;;;;;27.63;16.70;;;3.20;84.30;;;;;;5057600;28;20053;-67
2020/12/03 04:51:14;;;;;;;30.55;20.50;;;3.20;84.50;;;;;;5057305;28;20037;-68
2020/12/03 04:53:49;;;;;;;56.03;31.90;;;3.20;84.60;;;;;;5057548;28;20029;-68
2020/12/03 04:56:48;;;;;;;114.38;54.50;;;3.20;84.60;;;;;;5056636;28;20040;-68
2020/12/03 04:59:24;;;;;;;63.35;28.75;;;3.20;84.60;;;;;;5055238;28;20061;-68
2020/12/03 05:02:15;;;;;;;107.90;44.33;;;3.20;84.30;;;;;;5057518;28;20040;-68
2020/12/03 05:05:04;;;;;;;95.72;43.78;;;3.20;84.30;;;;;;5056948;28;20021;-69
2020/12/03 05:07:30;;;;;;;204.07;93.70;;;3.20;84.30;;;;;;5057551;28;20025;-68
2020/12/03 05:10:36;;;;;;;123.78;63.55;;;3.30;84.60;;;;;;5056783;28;20036;-69
2020/12/03 05:13:02;;;;;;;122.25;64.45;;;3.30;84.30;;;;;;5057625;28;20458;-70
2020/12/03 05:15:32;;;;;;;96.05;50.53;;;3.30;84.30;;;;;;5057049;28;20025;-68
2020/12/03 05:18:09;;;;;;;85.82;47.75;;;3.30;84.40;;;;;;5056561;28;20033;-68
2020/12/03 05:20:57;;;;;;;61.58;36.90;;;3.30;84.40;;;;;;5055616;28;20088;-68
2020/12/03 05:23:26;;;;;;;51.65;32.65;;;3.40;84.80;;;;;;5056237;28;20032;-69
2020/12/03 05:25:55;;;;;;;45.17;28.35;;;3.40;84.70;;;;;;5056858;28;20048;-68
2020/12/03 05:28:20;;;;;;;61.83;36.22;;;3.40;84.80;;;;;;5056817;28;20032;-69
2020/12/03 05:30:52;;;;;;;67.63;41.95;;;3.40;85.00;;;;;;5056706;28;20029;-68
2020/12/03 05:33:18;;;;;;;48.28;30.02;;;3.40;84.80;;;;;;5056818;28;20025;-68
2020/12/03 05:35:44;;;;;;;60.88;35.25;;;3.40;84.30;;;;;;5055412;28;20040;-70
2020/12/03 05:38:24;;;;;;;56.38;34.63;;;3.50;84.30;;;;;;5056318;28;20029;-69
2020/12/03 05:41:03;;;;;;;40.60;24.08;;;3.50;84.30;;;;;;5056505;28;20040;-71
2020/12/03 05:43:30;;;;;;;43.80;28.30;;;3.50;84.40;;;;;;5055238;28;20163;-69
2020/12/03 05:45:57;;;;;;;43.00;28.42;;;3.50;84.50;;;;;;5055924;28;20473;-68
2020/12/03 05:48:23;;;;;;;37.67;26.60;;;3.50;84.40;;;;;;5056412;28;20128;-68
2020/12/03 05:50:52;;;;;;;54.78;36.17;;;3.50;84.50;;;;;;5056901;28;20099;-68
2020/12/03 05:53:21;;;;;;;42.75;26.65;;;3.50;84.60;;;;;;5056085;28;20066;-69
2020/12/03 05:55:49;;;;;;;39.38;25.95;;;3.50;84.60;;;;;;5054594;28;20381;-69
2020/12/03 05:58:29;;;;;;;46.85;29.02;;;3.50;84.60;;;;;;5054870;28;20478;-68
2020/12/03 06:01:15;;;;;;;51.95;33.88;;;3.50;84.50;;;;;;5055884;28;20041;-67
2020/12/03 06:03:59;;;;;;;34.58;21.40;;;3.50;84.50;;;;;;5056131;28;20021;-68
2020/12/03 06:06:54;;;;;;;37.92;23.65;;;3.50;84.70;;;;;;5055809;28;20060;-67
2020/12/03 06:09:58;;;;;;;39.20;24.52;;;3.50;84.80;;;;;;5055826;28;20534;-66
2020/12/03 06:13:07;;;;;;;40.65;24.90;;;3.50;84.90;;;;;;5054946;28;20056;-66
2020/12/03 06:15:58;;;;;;;28.98;17.85;;;3.50;85.00;;;;;;5056080;28;20480;-67
2020/12/03 06:18:29;;;;;;;31.80;19.20;;;3.50;85.00;;;;;;5056140;28;20040;-69
2020/12/03 06:21:32;;;;;;;34.60;18.45;;;3.50;85.10;;;;;;5055222;28;20116;-67
2020/12/03 06:24:00;;;;;;;37.13;22.50;;;3.50;85.00;;;;;;5055931;28;20032;-68
2020/12/03 06:27:14;;;;;;;35.40;20.67;;;3.50;85.00;;;;;;5055373;28;20035;-67
2020/12/03 06:29:59;;;;;;;36.97;20.92;;;3.50;85.00;;;;;;5055541;28;20025;-68
2020/12/03 06:32:30;;;;;;;32.28;19.92;;;3.60;85.10;;;;;;5055840;28;20108;-67
2020/12/03 06:35:25;;;;;;;37.92;25.58;;;3.60;84.80;;;;;;5055370;28;20037;-68
2020/12/03 06:38:14;;;;;;;30.80;18.20;;;3.70;84.90;;;;;;5055001;28;20033;-69
2020/12/03 06:40:53;;;;;;;41.67;25.00;;;3.70;85.00;;;;;;5055158;28;20033;-68
2020/12/03 06:43:42;;;;;;;30.70;18.75;;;3.70;84.60;;;;;;5055447;28;20385;-66
2020/12/03 06:46:22;;;;;;;28.20;16.42;;;3.70;84.70;;;;;;5055412;28;20029;-67
2020/12/03 06:49:07;;;;;;;29.15;16.85;;;3.80;84.70;;;;;;5053738;28;20051;-66
2020/12/03 06:51:48;;;;;;;30.02;18.38;;;3.80;84.40;;;;;;5055350;28;20036;-67
2020/12/03 06:54:45;;;;;;;28.58;17.90;;;3.80;84.50;;;;;;5055010;28;20032;-68
2020/12/03 06:57:32;;;;;;;29.73;16.15;;;3.80;84.50;;;;;;5055130;28;20045;-65
2020/12/03 07:00:24;;;;;;;27.95;17.50;;;3.80;84.60;;;;;;5054726;28;20473;-69
2020/12/03 07:03:21;;;;;;;26.90;15.80;;;3.80;84.70;;;;;;5054414;28;20041;-69
2020/12/03 07:06:16;;;;;;;26.90;15.90;;;3.90;84.60;;;;;;5054796;28;20056;-68
2020/12/03 07:09:38;;;;;;;30.85;15.68;;;3.90;84.50;;;;;;5053563;28;20028;-67
2020/12/03 07:12:44;;;;;;;24.90;15.88;;;3.90;84.90;;;;;;5052611;28;20044;-66
2020/12/03 07:15:47;;;;;;;29.40;16.05;;;3.90;84.60;;;;;;5052492;28;20033;-66
2020/12/03 07:18:34;;;;;;;27.92;16.35;;;3.90;84.80;;;;;;5053733;28;20470;-67
2020/12/03 07:21:31;;;;;;;28.52;16.75;;;3.90;84.70;;;;;;5055232;28;20037;-68
2020/12/03 07:24:05;;;;;;;51.38;25.35;;;4.00;84.70;;;;;;5054332;28;20402;-68
2020/12/03 07:26:53;;;;;;;37.17;20.88;;;4.00;84.70;;;;;;5054919;28;20028;-68
2020/12/03 07:29:39;;;;;;;43.55;21.80;;;4.10;84.80;;;;;;5054806;28;20060;-67
2020/12/03 07:32:16;;;;;;;54.25;24.17;;;4.10;84.70;;;;;;5054775;28;20021;-68
2020/12/03 07:34:51;;;;;;;31.50;18.25;;;4.10;84.60;;;;;;5054529;28;20131;-67
2020/12/03 07:37:36;;;;;;;28.85;16.40;;;4.10;84.80;;;;;;5054104;28;20052;-68
2020/12/03 07:40:03;;;;;;;28.15;17.40;;;4.20;84.70;;;;;;5054597;28;20041;-67
2020/12/03 07:42:29;;;;;;;30.20;17.50;;;4.30;84.70;;;;;;5053061;28;20358;-68
2020/12/03 07:44:55;;;;;;;28.65;17.83;;;4.30;84.60;;;;;;5053742;28;20024;-69
2020/12/03 07:47:23;;;;;;;29.95;17.10;;;4.40;84.50;;;;;;5053763;28;20021;-68
2020/12/03 07:49:53;;;;;;;32.20;17.75;;;4.40;84.40;;;;;;5054458;28;20043;-68
2020/12/03 07:52:30;;;;;;;33.83;19.70;;;4.50;84.60;;;;;;5053756;28;20029;-68
2020/12/03 07:55:22;;;;;;;33.03;20.38;;;4.50;84.30;;;;;;5054139;28;20526;-67
2020/12/03 07:57:59;;;;;;;48.97;25.70;;;4.50;84.10;;;;;;5053190;28;20465;-68
2020/12/03 08:00:24;;;;;;;39.10;22.30;;;4.60;83.80;;;;;;5053979;28;20040;-67
2020/12/03 08:02:55;;;;;;;39.00;22.80;;;4.60;83.90;;;;;;5053939;28;20028;-68
2020/12/03 08:05:40;;;;;;;36.30;20.23;;;4.60;84.00;;;;;;5053791;28;20021;-68
2020/12/03 08:08:36;;;;;;;58.73;36.60;;;4.60;83.80;;;;;;5053607;28;20528;-68
2020/12/03 08:11:02;;;;;;;56.03;35.88;;;4.60;84.00;;;;;;5054186;28;20028;-68
2020/12/03 08:13:28;;;;;;;37.92;22.60;;;4.60;83.90;;;;;;5053270;28;20544;-68
2020/12/03 08:15:59;;;;;;;38.30;23.55;;;4.70;84.00;;;;;;5053802;28;20025;-68
2020/12/03 08:18:56;;;;;;;48.65;30.70;;;4.70;83.90;;;;;;5052320;28;20068;-66
2020/12/03 08:21:37;;;;;;;34.67;22.50;;;4.80;83.80;;;;;;5053703;28;20086;-68
2020/12/03 08:24:06;;;;;;;34.22;20.85;;;4.80;84.00;;;;;;5053738;28;20472;-67
2020/12/03 08:26:31;;;;;;;47.60;30.08;;;4.80;83.80;;;;;;5053574;28;20120;-67
2020/12/03 08:28:57;;;;;;;40.90;27.15;;;4.80;84.10;;;;;;5053922;28;20060;-68
2020/12/03 08:31:23;;;;;;;33.33;20.48;;;4.90;83.80;;;;;;5054112;28;20032;-66
2020/12/03 08:33:52;;;;;;;29.35;20.23;;;4.90;84.00;;;;;;5053289;28;20025;-69
2020/12/03 08:36:19;;;;;;;35.08;20.95;;;4.90;83.60;;;;;;5054015;28;20052;-70
2020/12/03 08:38:51;;;;;;;43.45;25.50;;;5.00;83.60;;;;;;5053850;28;20036;-69
2020/12/03 08:41:19;;;;;;;29.67;18.20;;;5.00;83.40;;;;;;5053190;28;20422;-70
2020/12/03 08:43:51;;;;;;;36.58;20.77;;;5.10;83.30;;;;;;5052221;28;20036;-68
2020/12/03 08:46:24;;;;;;;38.53;24.10;;;5.10;83.20;;;;;;5053593;28;20389;-68
2020/12/03 08:48:50;;;;;;;34.70;21.35;;;5.10;83.50;;;;;;5054087;28;20033;-69
2020/12/03 08:51:18;;;;;;;36.00;21.52;;;5.10;83.10;;;;;;5053135;28;20108;-68
2020/12/03 08:53:48;;;;;;;31.08;18.85;;;5.10;83.20;;;;;;5053132;28;20029;-70
2020/12/03 08:56:17;;;;;;;36.22;21.35;;;5.10;82.90;;;;;;5051829;28;20032;-67
2020/12/03 08:59:02;;;;;;;38.08;21.48;;;5.20;82.80;;;;;;5053400;28;20166;-67
2020/12/03 09:01:59;;;;;;;35.58;21.52;;;5.20;83.20;;;;;;5051808;28;20587;-69
2020/12/03 09:04:28;;;;;;;39.30;22.25;;;5.20;83.00;;;;;;5053633;28;20054;-69
2020/12/03 09:06:57;;;;;;;37.47;23.60;;;5.20;82.90;;;;;;5053316;28;20037;-68
2020/12/03 09:09:24;;;;;;;38.45;23.25;;;5.30;84.10;;;;;;5051682;28;20032;-68
2020/12/03 09:11:51;;;;;;;35.80;20.25;;;5.30;82.80;;;;;;5052006;28;20372;-69
2020/12/03 09:14:19;;;;;;;33.15;20.33;;;5.40;82.90;;;;;;5051930;28;20373;-68
2020/12/03 09:16:53;;;;;;;50.90;26.67;;;5.30;83.20;;;;;;5051441;28;20029;-71
2020/12/03 09:19:25;;;;;;;52.80;27.20;;;5.40;83.30;;;;;;5052624;28;20032;-69
2020/12/03 09:21:51;;;;;;;45.58;25.77;;;5.40;83.30;;;;;;5052534;28;20450;-68
2020/12/03 09:24:22;;;;;;;41.05;23.77;;;5.50;86.20;;;;;;5052856;28;20489;-68
2020/12/03 09:26:49;;;;;;;39.17;23.20;;;5.60;82.90;;;;;;5053104;28;20024;-68
2020/12/03 09:29:17;;;;;;;36.40;21.52;;;5.60;83.60;;;;;;5053214;28;20029;-69
2020/12/03 09:31:43;;;;;;;38.67;23.88;;;5.60;82.60;;;;;;5057239;28;20036;-69
2020/12/03 09:34:10;;;;;;;36.55;22.27;;;5.70;83.30;;;;;;5056422;28;20025;-67
2020/12/03 09:36:37;;;;;;;42.92;26.55;;;5.70;82.30;;;;;;5056140;28;20453;-70
2020/12/03 09:39:04;;;;;;;39.35;21.30;;;5.70;82.60;;;;;;5056611;28;20457;-68
2020/12/03 09:41:31;;;;;;;28.60;18.73;;;5.70;82.60;;;;;;5055366;28;20385;-67
2020/12/03 09:44:01;;;;;;;32.03;18.08;;;5.70;82.40;;;;;;5055774;28;20120;-68
2020/12/03 09:46:29;;;;;;;34.58;19.23;;;5.70;82.40;;;;;;5056484;28;20071;-69
2020/12/03 09:48:56;;;;;;;44.40;23.48;;;5.70;81.90;;;;;;5056474;28;20060;-69
2020/12/03 09:51:24;;;;;;;32.83;19.10;;;5.70;81.90;;;;;;5054733;28;20033;-69
2020/12/03 09:53:50;;;;;;;35.63;20.52;;;5.80;81.40;;;;;;5055036;28;20037;-68
2020/12/03 09:56:19;;;;;;;64.03;36.05;;;5.80;81.60;;;;;;5056065;28;20037;-67
2020/12/03 09:58:46;;;;;;;43.97;25.38;;;5.90;81.70;;;;;;5055997;28;20053;-66
2020/12/03 10:01:15;;;;;;;39.42;23.65;;;5.80;81.50;;;;;;5053602;28;20028;-66
2020/12/03 10:04:38;;;;;;;38.30;22.83;;;5.90;82.20;;;;;;5053273;28;20529;-66
2020/12/03 10:07:16;;;;;;;41.95;24.63;;;6.00;82.80;;;;;;5044010;28;20017;-68
2020/12/03 10:10:06;;;;;;;50.08;26.10;;;6.00;81.80;;;;;;5036056;28;20030;-68
2020/12/03 10:12:53;;;;;;;43.53;22.48;;;6.00;81.90;;;;;;5035043;28;20042;-68
2020/12/03 10:15:47;;;;;;;38.85;20.45;;;6.00;81.70;;;;;;5036908;28;20029;-66
2020/12/03 10:18:21;;;;;;;36.53;19.92;;;6.00;81.50;;;;;;5035459;28;20063;-66
2020/12/03 10:20:49;;;;;;;37.30;20.73;;;6.10;82.20;;;;;;5035611;28;20029;-65
2020/12/03 10:23:50;;;;;;;36.65;20.75;;;6.10;81.20;;;;;;5035859;28;20108;-66
2020/12/03 10:26:23;;;;;;;36.33;21.58;;;6.20;81.50;;;;;;5031562;28;20076;-68
2020/12/03 10:28:53;;;;;;;33.72;18.42;;;6.20;81.50;;;;;;5034597;28;20382;-67
2020/12/03 10:31:22;;;;;;;31.63;17.52;;;6.20;80.90;;;;;;5036311;28;20444;-68
2020/12/03 10:33:50;;;;;;;35.50;20.52;;;6.30;80.60;;;;;;5035689;28;20028;-65
2020/12/03 10:36:45;;;;;;;39.25;23.60;;;6.30;80.50;;;;;;5035694;28;20366;-69
2020/12/03 10:39:14;;;;;;;40.60;22.63;;;6.30;80.80;;;;;;5034229;28;20394;-68
2020/12/03 10:41:41;;;;;;;32.60;19.33;;;6.30;80.90;;;;;;5034439;28;20032;-69
2020/12/03 10:44:16;;;;;;;30.27;18.33;;;6.40;80.70;;;;;;5034086;28;20425;-68
2020/12/03 10:46:49;;;;;;;34.55;20.02;;;6.40;80.60;;;;;;5035058;28;20056;-69
2020/12/03 10:49:17;;;;;;;47.15;27.08;;;6.50;80.40;;;;;;5035722;28;20025;-68
2020/12/03 10:51:44;;;;;;;33.00;19.88;;;6.40;80.30;;;;;;5035602;28;20087;-68
2020/12/03 10:54:15;;;;;;;44.50;25.80;;;6.40;80.00;;;;;;5035271;28;20033;-69
2020/12/03 10:56:43;;;;;;;46.00;27.70;;;6.40;80.00;;;;;;5034509;28;20057;-67
2020/12/03 10:59:18;;;;;;;42.72;23.48;;;6.40;80.10;;;;;;5033921;28;20021;-67
2020/12/03 11:01:50;;;;;;;58.42;30.10;;;6.40;80.00;;;;;;5034742;28;20022;-67
2020/12/03 11:04:17;;;;;;;58.65;31.67;;;6.40;80.10;;;;;;5034785;28;20029;-66
2020/12/03 11:06:43;;;;;;;64.65;34.67;;;6.40;80.10;;;;;;5034799;28;20039;-67
2020/12/03 11:09:18;;;;;;;76.13;41.50;;;6.40;80.70;;;;;;5034756;28;20388;-67
2020/12/03 11:11:44;;;;;;;73.65;41.38;;;6.50;82.00;;;;;;5034950;28;20508;-66
2020/12/03 11:14:14;;;;;;;81.32;47.35;;;6.40;82.80;;;;;;5048809;28;20112;-66
2020/12/03 11:16:56;;;;;;;51.00;29.58;;;6.40;83.60;;;;;;5054459;28;20028;-67
2020/12/03 11:19:24;;;;;;;81.75;40.08;;;6.40;84.30;;;;;;5054723;28;20504;-68
2020/12/03 11:22:08;;;;;;;51.03;31.63;;;6.40;84.20;;;;;;5054391;28;20124;-66
2020/12/03 11:24:42;;;;;;;106.60;56.28;;;6.40;84.90;;;;;;5055000;28;20471;-67
2020/12/03 11:27:09;;;;;;;55.63;32.15;;;6.30;84.40;;;;;;5054548;28;20017;-69
2020/12/03 11:29:36;;;;;;;59.05;31.55;;;6.40;85.30;;;;;;5054262;28;20466;-69
2020/12/03 11:32:02;;;;;;;85.15;44.83;;;6.40;84.70;;;;;;5053771;28;20059;-67
2020/12/03 11:34:38;;;;;;;71.07;37.83;;;6.40;85.40;;;;;;5050117;28;20060;-66
2020/12/03 11:37:04;;;;;;;69.28;34.72;;;6.40;85.50;;;;;;5052579;28;20107;-68
2020/12/03 11:39:31;;;;;;;72.50;35.45;;;6.40;85.10;;;;;;5051146;28;20116;-68
2020/12/03 11:50:22;;;;;;;49.00;25.80;;;6.50;85.50;;;;;;5052893;28;20037;-68
2020/12/03 11:52:48;;;;;;;49.78;28.63;;;6.60;85.80;;;;;;5053763;28;20024;-69
2020/12/03 11:55:25;;;;;;;55.22;30.85;;;6.50;86.10;;;;;;5054004;28;20029;-68
2020/12/03 11:57:51;;;;;;;50.88;27.83;;;6.50;86.10;;;;;;5054012;28;20045;-67
2020/12/03 12:00:22;;;;;;;44.60;26.15;;;6.50;86.30;;;;;;5052576;28;20032;-66
2020/12/03 12:02:55;;;;;;;66.03;37.10;;;6.50;86.20;;;;;;5053164;28;20025;-69
2020/12/03 12:10:36;;;;;;;73.97;41.40;;;6.70;86.20;;;;;;5053055;28;20357;-68
2020/12/03 12:13:02;;;;;;;78.47;40.92;;;6.70;86.50;;;;;;5053764;28;20082;-67
2020/12/03 12:15:28;;;;;;;85.80;44.92;;;6.80;85.50;;;;;;5053648;28;20100;-67
2020/12/03 12:17:53;;;;;;;55.10;29.42;;;6.70;85.30;;;;;;5053254;28;20381;-68
2020/12/03 12:20:20;;;;;;;59.03;32.28;;;6.80;85.90;;;;;;5053797;28;20503;-69
2020/12/03 12:22:46;;;;;;;109.20;54.85;;;6.80;85.20;;;;;;5053670;28;20053;-68
2020/12/03 12:25:12;;;;;;;58.72;31.90;;;6.90;84.60;;;;;;5053792;28;20060;-69
2020/12/03 12:27:37;;;;;;;77.15;40.05;;;6.90;84.10;;;;;;5053952;28;20367;-67
2020/12/03 12:30:04;;;;;;;98.72;50.85;;;6.90;84.20;;;;;;5052228;28;20033;-68
2020/12/03 12:32:29;;;;;;;94.80;48.17;;;6.90;83.50;;;;;;5053343;28;20029;-69
2020/12/03 12:34:55;;;;;;;133.63;64.93;;;6.90;83.70;;;;;;5053336;28;20139;-70
2020/12/03 12:37:21;;;;;;;57.00;31.80;;;6.90;83.50;;;;;;5053220;28;20087;-68
2020/12/03 12:39:47;;;;;;;46.33;29.35;;;7.00;83.20;;;;;;5053382;28;20037;-68
2020/12/03 12:42:12;;;;;;;105.18;47.38;;;7.00;83.00;;;;;;5052208;28;20488;-69
2020/12/03 12:44:38;;;;;;;53.30;27.80;;;7.00;82.80;;;;;;5052911;28;20036;-69
2020/12/03 12:47:05;;;;;;;99.03;48.63;;;7.00;83.20;;;;;;5053408;28;20021;-71
2020/12/03 12:49:32;;;;;;;62.03;34.45;;;7.00;83.10;;;;;;5053139;28;20029;-69
2020/12/03 12:51:58;;;;;;;83.40;43.35;;;7.00;83.00;;;;;;5052264;28;20029;-68
2020/12/03 12:54:24;;;;;;;68.25;35.67;;;7.00;83.90;;;;;;5053245;28;20078;-68
2020/12/03 12:56:52;;;;;;;84.22;39.97;;;7.00;82.80;;;;;;5053004;28;20045;-69
2020/12/03 12:59:18;;;;;;;100.50;47.72;;;7.10;82.80;;;;;;5052897;28;20021;-69
2020/12/03 13:01:48;;;;;;;96.10;45.40;;;7.10;82.50;;;;;;5052996;28;20029;-67
2020/12/03 13:04:15;;;;;;;89.30;45.10;;;7.10;82.00;;;;;;5053238;28;20024;-68
2020/12/03 13:06:41;;;;;;;105.22;49.58;;;7.10;82.20;;;;;;5056578;28;20052;-67
2020/12/03 13:09:11;;;;;;;57.15;31.77;;;7.10;81.90;;;;;;5057163;28;20021;-69
2020/12/03 13:11:37;;;;;;;46.35;25.58;;;7.20;81.30;;;;;;5057464;28;20032;-69
2020/12/03 13:14:06;;;;;;;72.13;40.83;;;7.20;81.20;;;;;;5056787;28;20108;-67